Terminal Aerodrome Forecast
Issued by NWS Spokane, WA

Home | Current Version | Previous Version | Text Only | Print | Product List | Glossary On
Versions: 1 2 3 4 5 6 7 8 9 10 11 12 13 14 15
000
FTUS46 KOTX 172328
TAFLWS
TAF
KLWS 172328Z 1800/1824 30005KT P6SM -RA SCT025 OVC035
      TEMPO 1800/1804 6SM RA BKN015 OVC025
     FM180500 23006KT P6SM BKN040 OVC060
      TEMPO 1805/1808 P6SM -SHRA
     FM181000 28009G15KT P6SM VCSH SCT030 BKN080
     FM181800 30018G25KT P6SM SCT050=

USA.gov is the U.S. government's official web portal to all federal, state and local government web resources and services.